sensor_id;sensor_type;location;lat;lon;timestamp;temperature;humidity
63966;DHT22;50151;52.030;5.350;2022-08-18T06:52:56;19.20;97.90
63966;DHT22;50151;52.030;5.350;2022-08-18T06:55:35;19.30;97.70
63966;DHT22;50151;52.030;5.350;2022-08-18T07:01:06;19.30;96.80
63966;DHT22;50151;52.030;5.350;2022-08-18T07:08:50;19.50;96.50
63966;DHT22;50151;52.030;5.350;2022-08-18T07:11:29;19.60;96.10
63966;DHT22;50151;52.030;5.350;2022-08-18T07:14:16;19.70;96.40
63966;DHT22;50151;52.030;5.350;2022-08-18T07:16:47;19.70;95.90
63966;DHT22;50151;52.030;5.350;2022-08-18T07:19:29;19.80;95.50
63966;DHT22;50151;52.030;5.350;2022-08-18T07:22:13;19.90;95.70
63966;DHT22;50151;52.030;5.350;2022-08-18T07:24:45;19.90;95.10
63966;DHT22;50151;52.030;5.350;2022-08-18T07:27:21;20.00;95.20
63966;DHT22;50151;52.030;5.350;2022-08-18T07:32:36;20.00;93.60
63966;DHT22;50151;52.030;5.350;2022-08-18T07:35:07;20.00;93.70
63966;DHT22;50151;52.030;5.350;2022-08-18T07:37:42;20.00;93.50
63966;DHT22;50151;52.030;5.350;2022-08-18T07:40:19;20.10;93.50
63966;DHT22;50151;52.030;5.350;2022-08-18T07:42:57;20.10;93.20
63966;DHT22;50151;52.030;5.350;2022-08-18T07:45:36;20.20;93.80
63966;DHT22;50151;52.030;5.350;2022-08-18T07:48:18;20.30;92.80
63966;DHT22;50151;52.030;5.350;2022-08-18T07:54:38;20.50;92.60
63966;DHT22;50151;52.030;5.350;2022-08-18T07:57:19;20.50;92.80
63966;DHT22;50151;52.030;5.350;2022-08-18T07:59:56;20.60;92.10
63966;DHT22;50151;52.030;5.350;2022-08-18T08:10:38;21.30;89.80
63966;DHT22;50151;52.030;5.350;2022-08-18T08:13:16;21.40;90.30
63966;DHT22;50151;52.030;5.350;2022-08-18T08:16:12;21.40;88.10
63966;DHT22;50151;52.030;5.350;2022-08-18T08:21:21;21.40;88.80
63966;DHT22;50151;52.030;5.350;2022-08-18T08:23:54;21.10;86.30
63966;DHT22;50151;52.030;5.350;2022-08-18T08:27:00;21.10;89.30
63966;DHT22;50151;52.030;5.350;2022-08-18T08:32:29;21.00;90.10
63966;DHT22;50151;52.030;5.350;2022-08-18T08:37:43;21.10;88.10
63966;DHT22;50151;52.030;5.350;2022-08-18T08:40:45;21.20;87.30
63966;DHT22;50151;52.030;5.350;2022-08-18T08:44:19;21.40;86.90
63966;DHT22;50151;52.030;5.350;2022-08-18T08:46:28;21.40;84.90
63966;DHT22;50151;52.030;5.350;2022-08-18T08:49:05;21.60;84.20
63966;DHT22;50151;52.030;5.350;2022-08-18T08:51:37;21.70;82.00
63966;DHT22;50151;52.030;5.350;2022-08-18T08:54:10;21.70;81.60
63966;DHT22;50151;52.030;5.350;2022-08-18T08:56:43;21.90;82.10
63966;DHT22;50151;52.030;5.350;2022-08-18T08:59:14;21.90;80.90
63966;DHT22;50151;52.030;5.350;2022-08-18T09:01:44;22.00;80.30
63966;DHT22;50151;52.030;5.350;2022-08-18T09:04:35;22.20;80.60
63966;DHT22;50151;52.030;5.350;2022-08-18T09:10:29;22.30;79.30
63966;DHT22;50151;52.030;5.350;2022-08-18T09:18:58;22.40;77.00
63966;DHT22;50151;52.030;5.350;2022-08-18T09:21:44;22.40;78.60
63966;DHT22;50151;52.030;5.350;2022-08-18T09:24:25;22.40;77.50
63966;DHT22;50151;52.030;5.350;2022-08-18T09:40:17;23.10;75.00
63966;DHT22;50151;52.030;5.350;2022-08-18T09:43:37;22.90;73.30
63966;DHT22;50151;52.030;5.350;2022-08-18T09:46:06;22.70;75.30
63966;DHT22;50151;52.030;5.350;2022-08-18T09:48:38;22.50;75.20
63966;DHT22;50151;52.030;5.350;2022-08-18T09:53:53;22.80;76.50
63966;DHT22;50151;52.030;5.350;2022-08-18T10:21:24;24.20;67.20
63966;DHT22;50151;52.030;5.350;2022-08-18T10:37:22;24.90;63.60
63966;DHT22;50151;52.030;5.350;2022-08-18T10:39:56;24.90;64.60
63966;DHT22;50151;52.030;5.350;2022-08-18T10:42:48;24.70;65.50
63966;DHT22;50151;52.030;5.350;2022-08-18T10:45:28;24.60;68.20
63966;DHT22;50151;52.030;5.350;2022-08-18T10:50:55;24.20;68.40
63966;DHT22;50151;52.030;5.350;2022-08-18T10:53:39;24.30;68.30
63966;DHT22;50151;52.030;5.350;2022-08-18T11:04:42;24.00;67.20
63966;DHT22;50151;52.030;5.350;2022-08-18T11:07:44;24.10;68.60
63966;DHT22;50151;52.030;5.350;2022-08-18T11:10:42;24.10;68.30
63966;DHT22;50151;52.030;5.350;2022-08-18T11:13:55;24.20;67.50
63966;DHT22;50151;52.030;5.350;2022-08-18T11:16:47;24.30;67.30
63966;DHT22;50151;52.030;5.350;2022-08-18T11:19:20;24.60;67.30
63966;DHT22;50151;52.030;5.350;2022-08-18T11:21:51;24.60;66.40
63966;DHT22;50151;52.030;5.350;2022-08-18T11:24:27;24.60;65.60
63966;DHT22;50151;52.030;5.350;2022-08-18T11:26:57;24.70;66.60
63966;DHT22;50151;52.030;5.350;2022-08-18T11:29:32;25.00;65.20
63966;DHT22;50151;52.030;5.350;2022-08-18T11:32:07;25.40;65.30
63966;DHT22;50151;52.030;5.350;2022-08-18T11:34:43;25.80;63.00
63966;DHT22;50151;52.030;5.350;2022-08-18T11:39:52;25.10;62.20
63966;DHT22;50151;52.030;5.350;2022-08-18T11:42:37;25.10;61.90
63966;DHT22;50151;52.030;5.350;2022-08-18T11:45:26;25.30;63.20
63966;DHT22;50151;52.030;5.350;2022-08-18T11:51:00;25.90;61.00
63966;DHT22;50151;52.030;5.350;2022-08-18T11:56:29;26.60;62.30
63966;DHT22;50151;52.030;5.350;2022-08-18T11:59:29;26.20;61.30
63966;DHT22;50151;52.030;5.350;2022-08-18T12:02:18;25.80;62.90
63966;DHT22;50151;52.030;5.350;2022-08-18T12:04:54;25.80;62.90
63966;DHT22;50151;52.030;5.350;2022-08-18T12:07:32;25.70;62.40
63966;DHT22;50151;52.030;5.350;2022-08-18T12:12:52;25.80;63.70
63966;DHT22;50151;52.030;5.350;2022-08-18T12:15:33;25.70;61.60
63966;DHT22;50151;52.030;5.350;2022-08-18T12:18:20;25.80;60.00
63966;DHT22;50151;52.030;5.350;2022-08-18T12:20:56;25.90;60.50
63966;DHT22;50151;52.030;5.350;2022-08-18T12:23:24;26.00;59.70
63966;DHT22;50151;52.030;5.350;2022-08-18T12:25:51;26.00;60.60
63966;DHT22;50151;52.030;5.350;2022-08-18T12:28:19;26.00;61.20
63966;DHT22;50151;52.030;5.350;2022-08-18T12:30:48;26.00;60.90
63966;DHT22;50151;52.030;5.350;2022-08-18T12:33:23;25.80;62.10
63966;DHT22;50151;52.030;5.350;2022-08-18T12:35:51;25.80;62.80
63966;DHT22;50151;52.030;5.350;2022-08-18T12:38:18;25.80;62.80
63966;DHT22;50151;52.030;5.350;2022-08-18T12:40:44;25.80;63.40
63966;DHT22;50151;52.030;5.350;2022-08-18T12:43:11;25.70;62.80
63966;DHT22;50151;52.030;5.350;2022-08-18T12:45:39;25.80;63.70
63966;DHT22;50151;52.030;5.350;2022-08-18T12:48:11;25.90;64.90
63966;DHT22;50151;52.030;5.350;2022-08-18T12:50:39;25.90;63.50
63966;DHT22;50151;52.030;5.350;2022-08-18T12:53:26;25.80;63.80
63966;DHT22;50151;52.030;5.350;2022-08-18T12:56:05;25.90;63.30
63966;DHT22;50151;52.030;5.350;2022-08-18T12:58:36;25.90;62.50
63966;DHT22;50151;52.030;5.350;2022-08-18T13:01:06;25.80;62.80
63966;DHT22;50151;52.030;5.350;2022-08-18T13:03:32;26.60;62.00
63966;DHT22;50151;52.030;5.350;2022-08-18T13:06:20;27.30;60.20
63966;DHT22;50151;52.030;5.350;2022-08-18T13:08:47;26.70;60.00
63966;DHT22;50151;52.030;5.350;2022-08-18T13:11:17;26.60;61.30
63966;DHT22;50151;52.030;5.350;2022-08-18T13:13:52;26.70;60.60
63966;DHT22;50151;52.030;5.350;2022-08-18T13:16:25;26.60;61.20
63966;DHT22;50151;52.030;5.350;2022-08-18T13:19:13;26.50;60.90
63966;DHT22;50151;52.030;5.350;2022-08-18T13:21:40;26.40;59.80
63966;DHT22;50151;52.030;5.350;2022-08-18T13:24:09;26.20;62.20
63966;DHT22;50151;52.030;5.350;2022-08-18T13:26:41;26.10;62.40
63966;DHT22;50151;52.030;5.350;2022-08-18T13:29:14;26.00;61.30
63966;DHT22;50151;52.030;5.350;2022-08-18T13:31:44;26.10;61.80
63966;DHT22;50151;52.030;5.350;2022-08-18T13:34:23;26.20;61.90
63966;DHT22;50151;52.030;5.350;2022-08-18T13:36:50;26.30;61.50
63966;DHT22;50151;52.030;5.350;2022-08-18T13:39:21;26.40;60.60
63966;DHT22;50151;52.030;5.350;2022-08-18T13:41:50;26.60;59.10
63966;DHT22;50151;52.030;5.350;2022-08-18T13:44:19;26.60;59.30
63966;DHT22;50151;52.030;5.350;2022-08-18T13:46:51;27.20;58.30
63966;DHT22;50151;52.030;5.350;2022-08-18T13:49:22;27.10;56.00
63966;DHT22;50151;52.030;5.350;2022-08-18T13:51:56;27.10;57.20
63966;DHT22;50151;52.030;5.350;2022-08-18T13:54:30;27.50;55.60
63966;DHT22;50151;52.030;5.350;2022-08-18T13:57:01;27.20;58.60
63966;DHT22;50151;52.030;5.350;2022-08-18T13:59:28;26.90;56.90
63966;DHT22;50151;52.030;5.350;2022-08-18T14:02:05;26.90;56.90
63966;DHT22;50151;52.030;5.350;2022-08-18T14:04:34;26.70;58.20
63966;DHT22;50151;52.030;5.350;2022-08-18T14:07:01;26.80;57.50
63966;DHT22;50151;52.030;5.350;2022-08-18T14:09:35;27.50;57.80
63966;DHT22;50151;52.030;5.350;2022-08-18T14:12:06;27.10;56.20
63966;DHT22;50151;52.030;5.350;2022-08-18T14:14:48;27.00;57.10
63966;DHT22;50151;52.030;5.350;2022-08-18T14:17:18;26.80;57.30
63966;DHT22;50151;52.030;5.350;2022-08-18T14:19:51;27.20;58.40
63966;DHT22;50151;52.030;5.350;2022-08-18T14:22:52;27.50;57.10
63966;DHT22;50151;52.030;5.350;2022-08-18T14:25:39;27.30;57.40
63966;DHT22;50151;52.030;5.350;2022-08-18T14:28:26;27.10;57.10
63966;DHT22;50151;52.030;5.350;2022-08-18T14:30:54;27.10;59.40
63966;DHT22;50151;52.030;5.350;2022-08-18T14:33:23;27.10;57.90
63966;DHT22;50151;52.030;5.350;2022-08-18T14:36:12;27.50;57.90
63966;DHT22;50151;52.030;5.350;2022-08-18T14:38:39;28.10;56.20
63966;DHT22;50151;52.030;5.350;2022-08-18T14:41:09;28.60;55.00
63966;DHT22;50151;52.030;5.350;2022-08-18T14:43:36;29.00;56.60
63966;DHT22;50151;52.030;5.350;2022-08-18T14:46:23;29.00;53.50
63966;DHT22;50151;52.030;5.350;2022-08-18T14:48:58;29.00;53.90
63966;DHT22;50151;52.030;5.350;2022-08-18T14:51:30;28.80;53.00
63966;DHT22;50151;52.030;5.350;2022-08-18T14:53:59;29.10;52.60
63966;DHT22;50151;52.030;5.350;2022-08-18T14:56:26;28.90;52.30
63966;DHT22;50151;52.030;5.350;2022-08-18T14:58:55;29.20;52.60
63966;DHT22;50151;52.030;5.350;2022-08-18T15:01:23;29.30;52.90
63966;DHT22;50151;52.030;5.350;2022-08-18T15:03:52;29.30;50.80
63966;DHT22;50151;52.030;5.350;2022-08-18T15:06:20;29.10;51.50
63966;DHT22;50151;52.030;5.350;2022-08-18T15:08:53;29.10;51.80
63966;DHT22;50151;52.030;5.350;2022-08-18T15:11:23;29.20;51.60
63966;DHT22;50151;52.030;5.350;2022-08-18T15:13:50;28.90;50.80
63966;DHT22;50151;52.030;5.350;2022-08-18T15:16:21;28.70;51.90
63966;DHT22;50151;52.030;5.350;2022-08-18T15:18:57;28.50;53.80
63966;DHT22;50151;52.030;5.350;2022-08-18T15:21:23;28.00;53.00
63966;DHT22;50151;52.030;5.350;2022-08-18T15:24:09;28.10;54.20
63966;DHT22;50151;52.030;5.350;2022-08-18T15:26:56;28.20;53.40
63966;DHT22;50151;52.030;5.350;2022-08-18T15:29:32;28.20;54.40
63966;DHT22;50151;52.030;5.350;2022-08-18T15:32:00;28.40;54.50
63966;DHT22;50151;52.030;5.350;2022-08-18T15:34:36;28.10;53.80
63966;DHT22;50151;52.030;5.350;2022-08-18T15:37:13;28.20;53.80
63966;DHT22;50151;52.030;5.350;2022-08-18T15:39:40;28.20;54.50
63966;DHT22;50151;52.030;5.350;2022-08-18T15:42:09;28.20;55.00
63966;DHT22;50151;52.030;5.350;2022-08-18T15:44:38;28.00;53.70
63966;DHT22;50151;52.030;5.350;2022-08-18T15:47:10;27.80;54.00
63966;DHT22;50151;52.030;5.350;2022-08-18T15:49:37;27.90;54.40
63966;DHT22;50151;52.030;5.350;2022-08-18T15:52:04;27.90;54.40
63966;DHT22;50151;52.030;5.350;2022-08-18T15:54:37;28.00;54.60
63966;DHT22;50151;52.030;5.350;2022-08-18T15:57:07;28.00;54.90
63966;DHT22;50151;52.030;5.350;2022-08-18T16:00:00;28.00;54.00
63966;DHT22;50151;52.030;5.350;2022-08-18T16:02:27;27.90;54.70
63966;DHT22;50151;52.030;5.350;2022-08-18T16:04:54;27.90;55.20
63966;DHT22;50151;52.030;5.350;2022-08-18T16:07:22;27.70;54.20
63966;DHT22;50151;52.030;5.350;2022-08-18T16:10:06;27.40;55.70
63966;DHT22;50151;52.030;5.350;2022-08-18T16:12:33;27.30;56.20
63966;DHT22;50151;52.030;5.350;2022-08-18T16:15:00;27.30;56.70
63966;DHT22;50151;52.030;5.350;2022-08-18T16:17:34;27.20;56.80
63966;DHT22;50151;52.030;5.350;2022-08-18T16:20:01;27.30;56.80
63966;DHT22;50151;52.030;5.350;2022-08-18T16:22:28;27.30;57.90
63966;DHT22;50151;52.030;5.350;2022-08-18T16:24:55;27.30;57.80
63966;DHT22;50151;52.030;5.350;2022-08-18T16:27:21;27.20;57.00
63966;DHT22;50151;52.030;5.350;2022-08-18T16:29:48;27.20;56.50
63966;DHT22;50151;52.030;5.350;2022-08-18T16:32:15;27.20;57.00
63966;DHT22;50151;52.030;5.350;2022-08-18T16:34:42;27.40;57.70
63966;DHT22;50151;52.030;5.350;2022-08-18T16:37:09;27.20;55.60
63966;DHT22;50151;52.030;5.350;2022-08-18T16:39:36;27.20;56.30
63966;DHT22;50151;52.030;5.350;2022-08-18T16:42:03;27.00;58.10
63966;DHT22;50151;52.030;5.350;2022-08-18T16:44:30;26.80;57.90
63966;DHT22;50151;52.030;5.350;2022-08-18T16:46:58;26.90;57.60
63966;DHT22;50151;52.030;5.350;2022-08-18T16:49:28;26.70;56.80
63966;DHT22;50151;52.030;5.350;2022-08-18T16:51:55;26.70;57.80
63966;DHT22;50151;52.030;5.350;2022-08-18T16:54:22;26.90;58.30
63966;DHT22;50151;52.030;5.350;2022-08-18T16:56:48;27.10;58.00
63966;DHT22;50151;52.030;5.350;2022-08-18T16:59:15;27.20;58.50
63966;DHT22;50151;52.030;5.350;2022-08-18T17:02:00;27.10;58.50
63966;DHT22;50151;52.030;5.350;2022-08-18T17:04:46;26.80;59.50
63966;DHT22;50151;52.030;5.350;2022-08-18T17:07:13;26.70;58.40
63966;DHT22;50151;52.030;5.350;2022-08-18T17:09:39;26.60;59.10
63966;DHT22;50151;52.030;5.350;2022-08-18T17:12:06;26.50;59.70
63966;DHT22;50151;52.030;5.350;2022-08-18T17:14:33;26.40;60.80
63966;DHT22;50151;52.030;5.350;2022-08-18T17:17:00;26.20;60.80
63966;DHT22;50151;52.030;5.350;2022-08-18T17:19:30;26.30;62.00
63966;DHT22;50151;52.030;5.350;2022-08-18T17:22:00;26.10;61.60
63966;DHT22;50151;52.030;5.350;2022-08-18T17:24:27;26.00;62.10
63966;DHT22;50151;52.030;5.350;2022-08-18T17:27:05;26.00;62.00
63966;DHT22;50151;52.030;5.350;2022-08-18T17:30:04;26.00;63.10
63966;DHT22;50151;52.030;5.350;2022-08-18T17:32:41;26.00;62.90
63966;DHT22;50151;52.030;5.350;2022-08-18T17:35:35;25.80;63.40
63966;DHT22;50151;52.030;5.350;2022-08-18T17:40:43;25.60;64.50
63966;DHT22;50151;52.030;5.350;2022-08-18T17:43:16;25.70;64.40
63966;DHT22;50151;52.030;5.350;2022-08-18T17:45:47;25.60;64.50
63966;DHT22;50151;52.030;5.350;2022-08-18T17:48:27;25.70;64.30
63966;DHT22;50151;52.030;5.350;2022-08-18T17:51:03;25.60;65.10
63966;DHT22;50151;52.030;5.350;2022-08-18T17:53:50;25.50;64.90
63966;DHT22;50151;52.030;5.350;2022-08-18T17:56:25;25.40;65.40
63966;DHT22;50151;52.030;5.350;2022-08-18T17:59:11;25.40;66.10
63966;DHT22;50151;52.030;5.350;2022-08-18T18:02:15;25.40;66.40
63966;DHT22;50151;52.030;5.350;2022-08-18T18:05:01;25.20;66.90
63966;DHT22;50151;52.030;5.350;2022-08-18T18:07:53;25.20;67.20
63966;DHT22;50151;52.030;5.350;2022-08-18T18:10:40;25.10;67.50
63966;DHT22;50151;52.030;5.350;2022-08-18T18:13:30;25.10;66.90
63966;DHT22;50151;52.030;5.350;2022-08-18T18:16:20;25.00;67.20
63966;DHT22;50151;52.030;5.350;2022-08-18T18:19:03;24.90;66.50
63966;DHT22;50151;52.030;5.350;2022-08-18T18:21:33;24.80;68.10
63966;DHT22;50151;52.030;5.350;2022-08-18T18:24:30;24.70;69.20
63966;DHT22;50151;52.030;5.350;2022-08-18T18:26:57;24.60;69.80
63966;DHT22;50151;52.030;5.350;2022-08-18T18:29:29;24.60;69.00
63966;DHT22;50151;52.030;5.350;2022-08-18T18:32:23;24.50;68.90
63966;DHT22;50151;52.030;5.350;2022-08-18T18:37:43;24.40;70.40
63966;DHT22;50151;52.030;5.350;2022-08-18T18:40:29;24.40;71.40
63966;DHT22;50151;52.030;5.350;2022-08-18T18:43:15;24.40;71.80
63966;DHT22;50151;52.030;5.350;2022-08-18T18:48:46;24.30;70.90
63966;DHT22;50151;52.030;5.350;2022-08-18T18:51:29;24.10;72.10
63966;DHT22;50151;52.030;5.350;2022-08-18T18:54:34;24.00;72.70
63966;DHT22;50151;52.030;5.350;2022-08-18T18:57:11;23.90;73.00
63966;DHT22;50151;52.030;5.350;2022-08-18T19:02:57;23.70;73.80
63966;DHT22;50151;52.030;5.350;2022-08-18T19:05:41;23.60;73.90
63966;DHT22;50151;52.030;5.350;2022-08-18T19:11:09;23.40;74.70
63966;DHT22;50151;52.030;5.350;2022-08-18T19:13:44;23.40;74.30
63966;DHT22;50151;52.030;5.350;2022-08-18T19:16:27;23.20;74.90
63966;DHT22;50151;52.030;5.350;2022-08-18T19:19:23;23.20;74.70
63966;DHT22;50151;52.030;5.350;2022-08-18T19:22:13;23.10;74.90
63966;DHT22;50151;52.030;5.350;2022-08-18T19:24:51;23.00;75.10
63966;DHT22;50151;52.030;5.350;2022-08-18T19:27:27;23.00;75.10
63966;DHT22;50151;52.030;5.350;2022-08-18T19:29:59;23.00;75.10
63966;DHT22;50151;52.030;5.350;2022-08-18T19:32:41;22.90;75.10
63966;DHT22;50151;52.030;5.350;2022-08-18T19:35:13;22.80;75.40
63966;DHT22;50151;52.030;5.350;2022-08-18T19:38:02;22.80;75.50
63966;DHT22;50151;52.030;5.350;2022-08-18T19:43:31;22.70;75.00
63966;DHT22;50151;52.030;5.350;2022-08-18T19:46:04;22.70;74.80
63966;DHT22;50151;52.030;5.350;2022-08-18T19:48:48;22.70;75.00
63966;DHT22;50151;52.030;5.350;2022-08-18T19:51:32;22.60;75.10
63966;DHT22;50151;52.030;5.350;2022-08-18T19:54:23;22.60;75.50
63966;DHT22;50151;52.030;5.350;2022-08-18T19:57:22;22.50;75.60
63966;DHT22;50151;52.030;5.350;2022-08-18T20:00:08;22.40;75.50
63966;DHT22;50151;52.030;5.350;2022-08-18T20:11:29;22.20;76.40
63966;DHT22;50151;52.030;5.350;2022-08-18T20:14:14;22.10;76.90
63966;DHT22;50151;52.030;5.350;2022-08-18T20:22:07;22.00;77.90
63966;DHT22;50151;52.030;5.350;2022-08-18T20:24:49;22.00;78.00
63966;DHT22;50151;52.030;5.350;2022-08-18T20:27:38;22.00;78.10
63966;DHT22;50151;52.030;5.350;2022-08-18T20:30:30;21.90;78.80
63966;DHT22;50151;52.030;5.350;2022-08-18T20:33:12;21.80;79.10
63966;DHT22;50151;52.030;5.350;2022-08-18T20:38:58;21.80;78.90
63966;DHT22;50151;52.030;5.350;2022-08-18T20:41:42;21.60;78.70
63966;DHT22;50151;52.030;5.350;2022-08-18T20:44:32;21.60;79.50
63966;DHT22;50151;52.030;5.350;2022-08-18T20:47:43;21.60;79.90
63966;DHT22;50151;52.030;5.350;2022-08-18T20:50:34;21.50;80.30
63966;DHT22;50151;52.030;5.350;2022-08-18T20:53:34;21.50;80.10
63966;DHT22;50151;52.030;5.350;2022-08-18T21:01:54;21.30;80.30
63966;DHT22;50151;52.030;5.350;2022-08-18T21:07:16;21.20;80.50
63966;DHT22;50151;52.030;5.350;2022-08-18T21:12:38;21.20;80.90
63966;DHT22;50151;52.030;5.350;2022-08-18T21:15:19;21.20;80.30
63966;DHT22;50151;52.030;5.350;2022-08-18T21:17:58;21.10;81.60
63966;DHT22;50151;52.030;5.350;2022-08-18T21:20:26;21.10;80.90
63966;DHT22;50151;52.030;5.350;2022-08-18T21:23:01;21.10;81.30
